sensor_id;sensor_type;location;lat;lon;timestamp;temperature;humidity
23311;DHT22;11828;51.508;18.118;2022-07-29T00:00:56;33.90;25.60
23311;DHT22;11828;51.508;18.118;2022-07-29T00:03:22;33.90;25.60
23311;DHT22;11828;51.508;18.118;2022-07-29T00:05:48;33.90;25.60
23311;DHT22;11828;51.508;18.118;2022-07-29T00:08:14;33.90;25.70
23311;DHT22;11828;51.508;18.118;2022-07-29T00:10:41;33.90;25.60
23311;DHT22;11828;51.508;18.118;2022-07-29T00:13:08;33.90;25.60
23311;DHT22;11828;51.508;18.118;2022-07-29T00:15:34;33.90;25.70
23311;DHT22;11828;51.508;18.118;2022-07-29T00:18:00;33.80;25.70
23311;DHT22;11828;51.508;18.118;2022-07-29T00:20:26;33.80;25.80
23311;DHT22;11828;51.508;18.118;2022-07-29T00:22:52;33.80;25.90
23311;DHT22;11828;51.508;18.118;2022-07-29T00:25:19;33.80;26.00
23311;DHT22;11828;51.508;18.118;2022-07-29T00:27:45;33.70;26.60
23311;DHT22;11828;51.508;18.118;2022-07-29T00:30:12;33.70;26.10
23311;DHT22;11828;51.508;18.118;2022-07-29T00:32:38;33.70;26.10
23311;DHT22;11828;51.508;18.118;2022-07-29T00:35:04;33.60;26.10
23311;DHT22;11828;51.508;18.118;2022-07-29T00:37:50;33.70;26.10
23311;DHT22;11828;51.508;18.118;2022-07-29T00:40:16;33.70;26.10
23311;DHT22;11828;51.508;18.118;2022-07-29T00:42:48;33.60;26.10
23311;DHT22;11828;51.508;18.118;2022-07-29T00:45:17;33.60;26.60
23311;DHT22;11828;51.508;18.118;2022-07-29T00:47:43;33.60;26.00
23311;DHT22;11828;51.508;18.118;2022-07-29T00:50:11;33.70;26.00
23311;DHT22;11828;51.508;18.118;2022-07-29T00:52:39;33.60;26.00
23311;DHT22;11828;51.508;18.118;2022-07-29T00:55:10;33.60;26.10
23311;DHT22;11828;51.508;18.118;2022-07-29T00:57:38;33.60;26.10
23311;DHT22;11828;51.508;18.118;2022-07-29T01:00:06;33.60;26.10
23311;DHT22;11828;51.508;18.118;2022-07-29T01:02:33;33.50;26.20
23311;DHT22;11828;51.508;18.118;2022-07-29T01:05:00;33.50;26.30
23311;DHT22;11828;51.508;18.118;2022-07-29T01:07:28;33.50;26.30
23311;DHT22;11828;51.508;18.118;2022-07-29T01:09:56;33.50;26.40
23311;DHT22;11828;51.508;18.118;2022-07-29T01:12:27;33.40;26.30
23311;DHT22;11828;51.508;18.118;2022-07-29T01:14:55;33.30;26.40
23311;DHT22;11828;51.508;18.118;2022-07-29T01:17:44;33.30;26.90
23311;DHT22;11828;51.508;18.118;2022-07-29T01:20:23;33.30;26.70
23311;DHT22;11828;51.508;18.118;2022-07-29T01:26:00;33.30;26.80
23311;DHT22;11828;51.508;18.118;2022-07-29T01:28:48;33.30;26.70
23311;DHT22;11828;51.508;18.118;2022-07-29T01:31:21;33.20;26.70
23311;DHT22;11828;51.508;18.118;2022-07-29T01:37:47;33.20;26.90
23311;DHT22;11828;51.508;18.118;2022-07-29T01:40:25;33.20;26.90
23311;DHT22;11828;51.508;18.118;2022-07-29T01:43:06;33.20;26.70
23311;DHT22;11828;51.508;18.118;2022-07-29T01:45:59;33.10;26.70
23311;DHT22;11828;51.508;18.118;2022-07-29T01:48:51;33.10;27.00
23311;DHT22;11828;51.508;18.118;2022-07-29T01:51:24;33.00;26.90
23311;DHT22;11828;51.508;18.118;2022-07-29T01:54:10;33.00;26.80
23311;DHT22;11828;51.508;18.118;2022-07-29T01:56:40;32.90;27.00
23311;DHT22;11828;51.508;18.118;2022-07-29T01:59:09;32.90;27.00
23311;DHT22;11828;51.508;18.118;2022-07-29T02:01:37;32.90;27.00
23311;DHT22;11828;51.508;18.118;2022-07-29T02:04:06;32.80;27.00
23311;DHT22;11828;51.508;18.118;2022-07-29T02:06:37;32.80;27.50
23311;DHT22;11828;51.508;18.118;2022-07-29T02:09:05;32.80;27.00
23311;DHT22;11828;51.508;18.118;2022-07-29T02:11:33;32.80;27.00
23311;DHT22;11828;51.508;18.118;2022-07-29T02:14:00;32.80;27.10
23311;DHT22;11828;51.508;18.118;2022-07-29T02:16:29;32.80;27.00
23311;DHT22;11828;51.508;18.118;2022-07-29T02:18:58;32.80;27.10
23311;DHT22;11828;51.508;18.118;2022-07-29T02:21:26;32.80;27.10
23311;DHT22;11828;51.508;18.118;2022-07-29T02:23:54;32.80;27.10
23311;DHT22;11828;51.508;18.118;2022-07-29T02:26:23;32.80;27.20
23311;DHT22;11828;51.508;18.118;2022-07-29T02:28:52;32.80;27.20
23311;DHT22;11828;51.508;18.118;2022-07-29T02:31:24;32.80;27.20
23311;DHT22;11828;51.508;18.118;2022-07-29T02:33:52;32.80;27.10
23311;DHT22;11828;51.508;18.118;2022-07-29T02:36:21;32.80;27.20
23311;DHT22;11828;51.508;18.118;2022-07-29T02:38:49;32.80;27.20
23311;DHT22;11828;51.508;18.118;2022-07-29T02:41:23;32.80;27.20
23311;DHT22;11828;51.508;18.118;2022-07-29T02:43:56;32.80;27.20
23311;DHT22;11828;51.508;18.118;2022-07-29T02:46:34;32.70;27.20
23311;DHT22;11828;51.508;18.118;2022-07-29T02:49:22;32.70;27.30
23311;DHT22;11828;51.508;18.118;2022-07-29T02:52:43;32.60;27.40
23311;DHT22;11828;51.508;18.118;2022-07-29T02:55:27;32.60;27.30
23311;DHT22;11828;51.508;18.118;2022-07-29T02:58:08;32.60;27.60
23311;DHT22;11828;51.508;18.118;2022-07-29T03:01:15;32.60;27.40
23311;DHT22;11828;51.508;18.118;2022-07-29T03:03:44;32.60;27.60
23311;DHT22;11828;51.508;18.118;2022-07-29T03:06:13;32.60;27.40
23311;DHT22;11828;51.508;18.118;2022-07-29T03:08:40;32.50;27.40
23311;DHT22;11828;51.508;18.118;2022-07-29T03:11:08;32.60;27.60
23311;DHT22;11828;51.508;18.118;2022-07-29T03:13:35;32.40;27.50
23311;DHT22;11828;51.508;18.118;2022-07-29T03:16:02;32.40;27.50
23311;DHT22;11828;51.508;18.118;2022-07-29T03:18:31;32.40;27.50
23311;DHT22;11828;51.508;18.118;2022-07-29T03:20:57;32.40;27.50
23311;DHT22;11828;51.508;18.118;2022-07-29T03:23:24;32.40;27.50
23311;DHT22;11828;51.508;18.118;2022-07-29T03:25:53;32.30;27.50
23311;DHT22;11828;51.508;18.118;2022-07-29T03:28:19;32.30;27.40
23311;DHT22;11828;51.508;18.118;2022-07-29T03:30:46;32.30;27.50
23311;DHT22;11828;51.508;18.118;2022-07-29T03:33:13;32.20;27.40
23311;DHT22;11828;51.508;18.118;2022-07-29T03:35:39;32.20;27.40
23311;DHT22;11828;51.508;18.118;2022-07-29T03:38:05;32.30;27.50
23311;DHT22;11828;51.508;18.118;2022-07-29T03:40:46;32.30;27.40
23311;DHT22;11828;51.508;18.118;2022-07-29T03:43:17;32.20;27.40
23311;DHT22;11828;51.508;18.118;2022-07-29T03:45:47;32.30;27.50
23311;DHT22;11828;51.508;18.118;2022-07-29T03:48:16;32.30;27.40
23311;DHT22;11828;51.508;18.118;2022-07-29T03:50:44;32.40;27.40
23311;DHT22;11828;51.508;18.118;2022-07-29T03:53:10;32.40;27.50
23311;DHT22;11828;51.508;18.118;2022-07-29T03:55:41;32.50;27.50
23311;DHT22;11828;51.508;18.118;2022-07-29T03:58:10;32.50;27.50
23311;DHT22;11828;51.508;18.118;2022-07-29T04:00:39;32.60;27.60
23311;DHT22;11828;51.508;18.118;2022-07-29T04:03:06;32.70;27.50
23311;DHT22;11828;51.508;18.118;2022-07-29T04:05:32;32.70;27.40
23311;DHT22;11828;51.508;18.118;2022-07-29T04:07:58;32.80;27.30
23311;DHT22;11828;51.508;18.118;2022-07-29T04:10:25;32.90;27.40
23311;DHT22;11828;51.508;18.118;2022-07-29T04:12:51;32.90;27.30
23311;DHT22;11828;51.508;18.118;2022-07-29T04:15:18;33.00;27.10
23311;DHT22;11828;51.508;18.118;2022-07-29T04:17:45;33.10;27.10
23311;DHT22;11828;51.508;18.118;2022-07-29T04:20:11;33.20;27.10
23311;DHT22;11828;51.508;18.118;2022-07-29T04:22:41;33.20;27.00
23311;DHT22;11828;51.508;18.118;2022-07-29T04:25:07;33.30;26.90
23311;DHT22;11828;51.508;18.118;2022-07-29T04:27:34;33.40;27.00
23311;DHT22;11828;51.508;18.118;2022-07-29T04:30:00;33.40;27.10
23311;DHT22;11828;51.508;18.118;2022-07-29T04:32:26;33.50;27.00
23311;DHT22;11828;51.508;18.118;2022-07-29T04:34:53;33.50;27.00
23311;DHT22;11828;51.508;18.118;2022-07-29T04:37:19;33.60;27.00
23311;DHT22;11828;51.508;18.118;2022-07-29T04:39:45;33.60;27.00
23311;DHT22;11828;51.508;18.118;2022-07-29T04:42:11;33.70;27.00
23311;DHT22;11828;51.508;18.118;2022-07-29T04:44:37;33.80;26.90
23311;DHT22;11828;51.508;18.118;2022-07-29T04:47:03;33.80;26.90
23311;DHT22;11828;51.508;18.118;2022-07-29T04:49:30;33.80;27.00
23311;DHT22;11828;51.508;18.118;2022-07-29T04:51:56;33.80;27.00
23311;DHT22;11828;51.508;18.118;2022-07-29T04:54:22;33.80;27.10
23311;DHT22;11828;51.508;18.118;2022-07-29T04:56:48;33.80;27.00
23311;DHT22;11828;51.508;18.118;2022-07-29T04:59:14;33.90;27.00
23311;DHT22;11828;51.508;18.118;2022-07-29T05:01:40;33.90;27.10
23311;DHT22;11828;51.508;18.118;2022-07-29T05:04:06;33.90;27.10
23311;DHT22;11828;51.508;18.118;2022-07-29T05:06:33;33.90;27.10
23311;DHT22;11828;51.508;18.118;2022-07-29T05:08:59;34.00;27.10
23311;DHT22;11828;51.508;18.118;2022-07-29T05:11:25;34.10;27.20
23311;DHT22;11828;51.508;18.118;2022-07-29T05:13:51;34.10;27.20
23311;DHT22;11828;51.508;18.118;2022-07-29T05:16:17;34.20;27.20
23311;DHT22;11828;51.508;18.118;2022-07-29T05:18:43;34.30;27.50
23311;DHT22;11828;51.508;18.118;2022-07-29T05:21:09;34.30;27.40
23311;DHT22;11828;51.508;18.118;2022-07-29T05:23:35;34.40;27.50
23311;DHT22;11828;51.508;18.118;2022-07-29T05:26:02;34.50;27.50
23311;DHT22;11828;51.508;18.118;2022-07-29T05:28:28;34.50;27.40
23311;DHT22;11828;51.508;18.118;2022-07-29T05:30:54;34.60;27.40
23311;DHT22;11828;51.508;18.118;2022-07-29T05:33:20;34.70;27.40
23311;DHT22;11828;51.508;18.118;2022-07-29T05:35:46;34.80;27.20
23311;DHT22;11828;51.508;18.118;2022-07-29T05:38:12;34.80;27.10
23311;DHT22;11828;51.508;18.118;2022-07-29T05:40:38;34.90;27.10
23311;DHT22;11828;51.508;18.118;2022-07-29T05:43:04;35.00;26.90
23311;DHT22;11828;51.508;18.118;2022-07-29T05:45:30;35.00;26.90
23311;DHT22;11828;51.508;18.118;2022-07-29T05:47:56;35.10;27.00
23311;DHT22;11828;51.508;18.118;2022-07-29T05:50:22;35.30;27.00
23311;DHT22;11828;51.508;18.118;2022-07-29T05:52:48;35.30;26.90
23311;DHT22;11828;51.508;18.118;2022-07-29T05:55:15;35.50;27.00
23311;DHT22;11828;51.508;18.118;2022-07-29T05:57:41;35.70;27.00
23311;DHT22;11828;51.508;18.118;2022-07-29T06:00:09;35.80;26.80
23311;DHT22;11828;51.508;18.118;2022-07-29T06:02:36;35.90;26.50
23311;DHT22;11828;51.508;18.118;2022-07-29T06:05:02;36.00;26.30
23311;DHT22;11828;51.508;18.118;2022-07-29T06:07:28;36.00;26.10
23311;DHT22;11828;51.508;18.118;2022-07-29T06:09:54;36.10;26.50
23311;DHT22;11828;51.508;18.118;2022-07-29T06:12:22;36.20;25.80
23311;DHT22;11828;51.508;18.118;2022-07-29T06:14:48;36.20;26.10
23311;DHT22;11828;51.508;18.118;2022-07-29T06:17:16;36.30;25.40
23311;DHT22;11828;51.508;18.118;2022-07-29T06:19:42;36.40;25.20
23311;DHT22;11828;51.508;18.118;2022-07-29T06:22:08;36.30;25.00
23311;DHT22;11828;51.508;18.118;2022-07-29T06:24:36;36.40;25.00
23311;DHT22;11828;51.508;18.118;2022-07-29T06:27:05;36.50;24.90
23311;DHT22;11828;51.508;18.118;2022-07-29T06:29:31;36.70;25.00
23311;DHT22;11828;51.508;18.118;2022-07-29T06:31:57;36.90;24.40
23311;DHT22;11828;51.508;18.118;2022-07-29T06:34:23;37.00;24.30
23311;DHT22;11828;51.508;18.118;2022-07-29T06:36:49;36.90;24.10
23311;DHT22;11828;51.508;18.118;2022-07-29T06:39:15;37.10;24.20
23311;DHT22;11828;51.508;18.118;2022-07-29T06:41:41;37.00;24.00
23311;DHT22;11828;51.508;18.118;2022-07-29T06:44:07;36.90;23.90
23311;DHT22;11828;51.508;18.118;2022-07-29T06:46:33;36.90;23.90
23311;DHT22;11828;51.508;18.118;2022-07-29T06:48:59;37.00;23.80
23311;DHT22;11828;51.508;18.118;2022-07-29T06:51:26;37.00;23.90
23311;DHT22;11828;51.508;18.118;2022-07-29T06:53:53;37.10;23.90
23311;DHT22;11828;51.508;18.118;2022-07-29T06:56:19;37.20;23.90
23311;DHT22;11828;51.508;18.118;2022-07-29T06:58:45;37.30;24.00
23311;DHT22;11828;51.508;18.118;2022-07-29T07:01:12;37.50;24.00
23311;DHT22;11828;51.508;18.118;2022-07-29T07:03:38;37.50;23.80
23311;DHT22;11828;51.508;18.118;2022-07-29T07:06:04;37.60;23.90
23311;DHT22;11828;51.508;18.118;2022-07-29T07:08:30;37.70;23.80
23311;DHT22;11828;51.508;18.118;2022-07-29T07:10:56;37.70;23.70
23311;DHT22;11828;51.508;18.118;2022-07-29T07:13:23;37.90;23.80
23311;DHT22;11828;51.508;18.118;2022-07-29T07:15:49;38.00;23.70
23311;DHT22;11828;51.508;18.118;2022-07-29T07:18:16;38.10;23.50
23311;DHT22;11828;51.508;18.118;2022-07-29T07:20:43;38.50;23.50
23311;DHT22;11828;51.508;18.118;2022-07-29T07:23:10;38.60;23.10
23311;DHT22;11828;51.508;18.118;2022-07-29T07:25:36;38.80;23.10
23311;DHT22;11828;51.508;18.118;2022-07-29T07:28:02;39.00;23.00
23311;DHT22;11828;51.508;18.118;2022-07-29T07:30:29;39.50;22.90
23311;DHT22;11828;51.508;18.118;2022-07-29T07:32:55;40.10;22.50
23311;DHT22;11828;51.508;18.118;2022-07-29T07:35:22;40.50;21.80
23311;DHT22;11828;51.508;18.118;2022-07-29T07:37:48;40.60;21.60
23311;DHT22;11828;51.508;18.118;2022-07-29T07:40:14;40.70;21.30
23311;DHT22;11828;51.508;18.118;2022-07-29T07:42:40;40.70;21.10
23311;DHT22;11828;51.508;18.118;2022-07-29T07:45:08;41.10;20.90
23311;DHT22;11828;51.508;18.118;2022-07-29T07:47:39;41.20;20.40
23311;DHT22;11828;51.508;18.118;2022-07-29T07:50:07;41.50;20.50
23311;DHT22;11828;51.508;18.118;2022-07-29T07:52:34;41.80;20.20
23311;DHT22;11828;51.508;18.118;2022-07-29T07:55:03;41.80;20.00
23311;DHT22;11828;51.508;18.118;2022-07-29T07:57:29;41.60;19.60
23311;DHT22;11828;51.508;18.118;2022-07-29T07:59:55;41.80;19.70
23311;DHT22;11828;51.508;18.118;2022-07-29T08:02:21;41.30;19.60
23311;DHT22;11828;51.508;18.118;2022-07-29T08:04:47;41.40;20.10
23311;DHT22;11828;51.508;18.118;2022-07-29T08:07:14;41.50;20.00
23311;DHT22;11828;51.508;18.118;2022-07-29T08:09:40;41.80;19.90
23311;DHT22;11828;51.508;18.118;2022-07-29T08:12:06;42.10;19.60
23311;DHT22;11828;51.508;18.118;2022-07-29T08:14:33;42.30;19.60
23311;DHT22;11828;51.508;18.118;2022-07-29T08:16:59;42.40;19.80
23311;DHT22;11828;51.508;18.118;2022-07-29T08:19:25;42.10;18.90
23311;DHT22;11828;51.508;18.118;2022-07-29T08:21:51;41.80;19.10
23311;DHT22;11828;51.508;18.118;2022-07-29T08:24:19;41.80;19.20
23311;DHT22;11828;51.508;18.118;2022-07-29T08:27:04;41.90;19.30
23311;DHT22;11828;51.508;18.118;2022-07-29T08:29:30;41.80;19.30
23311;DHT22;11828;51.508;18.118;2022-07-29T08:31:56;41.80;19.30
23311;DHT22;11828;51.508;18.118;2022-07-29T08:34:22;41.70;19.30
23311;DHT22;11828;51.508;18.118;2022-07-29T08:36:48;41.60;19.30
23311;DHT22;11828;51.508;18.118;2022-07-29T08:39:14;41.60;19.50
23311;DHT22;11828;51.508;18.118;2022-07-29T08:41:41;41.60;19.40
23311;DHT22;11828;51.508;18.118;2022-07-29T08:44:07;41.60;19.50
23311;DHT22;11828;51.508;18.118;2022-07-29T08:46:33;41.30;19.20
23311;DHT22;11828;51.508;18.118;2022-07-29T08:48:59;40.80;19.20
23311;DHT22;11828;51.508;18.118;2022-07-29T08:51:27;40.70;19.20
23311;DHT22;11828;51.508;18.118;2022-07-29T08:53:54;40.60;19.20
23311;DHT22;11828;51.508;18.118;2022-07-29T08:56:21;40.50;19.30
23311;DHT22;11828;51.508;18.118;2022-07-29T08:58:48;40.40;19.40
23311;DHT22;11828;51.508;18.118;2022-07-29T09:01:17;40.10;19.40
23311;DHT22;11828;51.508;18.118;2022-07-29T09:03:48;39.90;19.60
23311;DHT22;11828;51.508;18.118;2022-07-29T09:06:17;39.70;19.70
23311;DHT22;11828;51.508;18.118;2022-07-29T09:08:44;39.70;19.80
23311;DHT22;11828;51.508;18.118;2022-07-29T09:11:12;39.70;19.80
23311;DHT22;11828;51.508;18.118;2022-07-29T09:13:39;39.60;19.90
23311;DHT22;11828;51.508;18.118;2022-07-29T09:16:05;39.60;20.20
23311;DHT22;11828;51.508;18.118;2022-07-29T09:18:43;39.70;20.20
23311;DHT22;11828;51.508;18.118;2022-07-29T09:21:11;39.90;20.30
23311;DHT22;11828;51.508;18.118;2022-07-29T09:24:06;40.00;20.20
23311;DHT22;11828;51.508;18.118;2022-07-29T09:26:41;40.00;20.20
23311;DHT22;11828;51.508;18.118;2022-07-29T09:31:45;40.70;20.30
23311;DHT22;11828;51.508;18.118;2022-07-29T09:34:14;41.10;19.90
23311;DHT22;11828;51.508;18.118;2022-07-29T09:36:49;41.60;19.70
23311;DHT22;11828;51.508;18.118;2022-07-29T09:39:27;42.10;19.70
23311;DHT22;11828;51.508;18.118;2022-07-29T09:41:58;42.30;18.90
23311;DHT22;11828;51.508;18.118;2022-07-29T09:44:26;42.30;18.90
23311;DHT22;11828;51.508;18.118;2022-07-29T09:49:50;42.30;19.10
23311;DHT22;11828;51.508;18.118;2022-07-29T09:52:20;42.00;19.00
23311;DHT22;11828;51.508;18.118;2022-07-29T09:54:47;42.00;19.10
23311;DHT22;11828;51.508;18.118;2022-07-29T09:57:27;41.80;19.10
23311;DHT22;11828;51.508;18.118;2022-07-29T10:00:04;41.60;19.10
23311;DHT22;11828;51.508;18.118;2022-07-29T10:02:34;41.60;19.00
23311;DHT22;11828;51.508;18.118;2022-07-29T10:05:03;41.70;19.10
23311;DHT22;11828;51.508;18.118;2022-07-29T10:07:48;42.10;19.00
23311;DHT22;11828;51.508;18.118;2022-07-29T10:10:30;42.10;18.70
23311;DHT22;11828;51.508;18.118;2022-07-29T10:13:02;42.40;18.90
23311;DHT22;11828;51.508;18.118;2022-07-29T10:15:35;42.60;18.70
23311;DHT22;11828;51.508;18.118;2022-07-29T10:18:05;43.00;18.40
23311;DHT22;11828;51.508;18.118;2022-07-29T10:20:32;43.10;18.00
23311;DHT22;11828;51.508;18.118;2022-07-29T10:22:59;43.20;18.10
23311;DHT22;11828;51.508;18.118;2022-07-29T10:25:26;43.20;18.10
23311;DHT22;11828;51.508;18.118;2022-07-29T10:27:52;43.10;18.40
23311;DHT22;11828;51.508;18.118;2022-07-29T10:30:21;43.10;19.10
23311;DHT22;11828;51.508;18.118;2022-07-29T10:38:47;43.30;18.00
23311;DHT22;11828;51.508;18.118;2022-07-29T10:41:58;43.20;18.00
23311;DHT22;11828;51.508;18.118;2022-07-29T10:44:32;43.10;18.10
23311;DHT22;11828;51.508;18.118;2022-07-29T10:46:59;42.90;18.30
23311;DHT22;11828;51.508;18.118;2022-07-29T10:49:26;42.70;18.30
23311;DHT22;11828;51.508;18.118;2022-07-29T10:52:08;42.50;18.40
23311;DHT22;11828;51.508;18.118;2022-07-29T10:59:41;42.40;18.50
23311;DHT22;11828;51.508;18.118;2022-07-29T11:05:10;42.70;18.50
23311;DHT22;11828;51.508;18.118;2022-07-29T11:07:39;42.70;18.40
23311;DHT22;11828;51.508;18.118;2022-07-29T11:10:26;42.80;18.40
23311;DHT22;11828;51.508;18.118;2022-07-29T11:12:52;42.90;18.40
23311;DHT22;11828;51.508;18.118;2022-07-29T11:15:20;42.90;18.20
23311;DHT22;11828;51.508;18.118;2022-07-29T11:20:44;42.70;18.50
23311;DHT22;11828;51.508;18.118;2022-07-29T11:26:20;42.40;18.70
23311;DHT22;11828;51.508;18.118;2022-07-29T11:28:51;42.00;18.70
23311;DHT22;11828;51.508;18.118;2022-07-29T11:31:44;42.10;18.70
23311;DHT22;11828;51.508;18.118;2022-07-29T11:34:23;42.10;18.80
23311;DHT22;11828;51.508;18.118;2022-07-29T11:39:46;42.20;19.00
23311;DHT22;11828;51.508;18.118;2022-07-29T11:47:41;42.60;18.80
23311;DHT22;11828;51.508;18.118;2022-07-29T11:50:28;42.90;18.70
23311;DHT22;11828;51.508;18.118;2022-07-29T11:52:56;43.00;18.70
23311;DHT22;11828;51.508;18.118;2022-07-29T11:55:24;43.10;18.50
23311;DHT22;11828;51.508;18.118;2022-07-29T11:57:58;43.10;18.60
23311;DHT22;11828;51.508;18.118;2022-07-29T12:02:58;43.00;18.20
23311;DHT22;11828;51.508;18.118;2022-07-29T12:08:20;43.50;18.90
23311;DHT22;11828;51.508;18.118;2022-07-29T12:10:49;43.90;18.30
23311;DHT22;11828;51.508;18.118;2022-07-29T12:13:18;44.30;18.00
23311;DHT22;11828;51.508;18.118;2022-07-29T12:15:55;44.30;17.70
23311;DHT22;11828;51.508;18.118;2022-07-29T12:18:26;44.20;17.60
23311;DHT22;11828;51.508;18.118;2022-07-29T12:21:00;44.10;17.50
23311;DHT22;11828;51.508;18.118;2022-07-29T12:23:31;43.90;17.70
23311;DHT22;11828;51.508;18.118;2022-07-29T12:25:58;43.80;17.80
23311;DHT22;11828;51.508;18.118;2022-07-29T12:28:25;43.70;17.90
23311;DHT22;11828;51.508;18.118;2022-07-29T12:30:51;43.70;18.10
23311;DHT22;11828;51.508;18.118;2022-07-29T12:33:27;43.90;17.90
23311;DHT22;11828;51.508;18.118;2022-07-29T12:35:57;44.20;17.80
23311;DHT22;11828;51.508;18.118;2022-07-29T12:38:25;44.50;17.30
23311;DHT22;11828;51.508;18.118;2022-07-29T12:40:52;44.70;17.40
23311;DHT22;11828;51.508;18.118;2022-07-29T12:43:21;44.90;17.60
23311;DHT22;11828;51.508;18.118;2022-07-29T12:45:55;44.80;17.50
23311;DHT22;11828;51.508;18.118;2022-07-29T12:48:36;44.70;17.60
23311;DHT22;11828;51.508;18.118;2022-07-29T12:51:04;44.30;17.40
23311;DHT22;11828;51.508;18.118;2022-07-29T12:53:32;44.20;17.80
23311;DHT22;11828;51.508;18.118;2022-07-29T12:55:59;44.00;17.90
23311;DHT22;11828;51.508;18.118;2022-07-29T13:01:13;44.10;18.00
23311;DHT22;11828;51.508;18.118;2022-07-29T13:03:56;44.20;17.90
23311;DHT22;11828;51.508;18.118;2022-07-29T13:09:18;44.50;18.00
23311;DHT22;11828;51.508;18.118;2022-07-29T13:11:47;44.80;17.80
23311;DHT22;11828;51.508;18.118;2022-07-29T13:14:36;44.90;17.60
23311;DHT22;11828;51.508;18.118;2022-07-29T13:17:21;44.70;17.50
23311;DHT22;11828;51.508;18.118;2022-07-29T13:20:05;44.50;17.60
23311;DHT22;11828;51.508;18.118;2022-07-29T13:22:34;44.40;17.60
23311;DHT22;11828;51.508;18.118;2022-07-29T13:25:02;44.50;17.80
23311;DHT22;11828;51.508;18.118;2022-07-29T13:27:31;44.40;17.80
23311;DHT22;11828;51.508;18.118;2022-07-29T13:30:01;44.20;17.80
23311;DHT22;11828;51.508;18.118;2022-07-29T13:32:30;44.00;18.10
23311;DHT22;11828;51.508;18.118;2022-07-29T13:34:58;43.60;18.10
23311;DHT22;11828;51.508;18.118;2022-07-29T13:37:26;43.30;18.30
23311;DHT22;11828;51.508;18.118;2022-07-29T13:39:55;43.10;18.40
23311;DHT22;11828;51.508;18.118;2022-07-29T13:42:23;42.80;18.50
23311;DHT22;11828;51.508;18.118;2022-07-29T13:44:49;42.50;18.80
23311;DHT22;11828;51.508;18.118;2022-07-29T13:47:21;42.40;19.10
23311;DHT22;11828;51.508;18.118;2022-07-29T13:49:48;42.30;19.00
23311;DHT22;11828;51.508;18.118;2022-07-29T13:52:15;42.20;19.10
23311;DHT22;11828;51.508;18.118;2022-07-29T13:54:41;42.30;19.30
23311;DHT22;11828;51.508;18.118;2022-07-29T13:57:09;42.40;19.40
23311;DHT22;11828;51.508;18.118;2022-07-29T13:59:39;42.60;19.50
23311;DHT22;11828;51.508;18.118;2022-07-29T14:02:06;42.70;19.30
23311;DHT22;11828;51.508;18.118;2022-07-29T14:04:33;42.60;19.20
23311;DHT22;11828;51.508;18.118;2022-07-29T14:06:59;42.60;19.20
23311;DHT22;11828;51.508;18.118;2022-07-29T14:09:25;42.50;19.20
23311;DHT22;11828;51.508;18.118;2022-07-29T14:11:51;42.60;19.20
23311;DHT22;11828;51.508;18.118;2022-07-29T14:14:19;42.70;19.30
23311;DHT22;11828;51.508;18.118;2022-07-29T14:16:45;42.70;19.30
23311;DHT22;11828;51.508;18.118;2022-07-29T14:19:12;42.50;19.70
23311;DHT22;11828;51.508;18.118;2022-07-29T14:21:39;42.40;19.20
23311;DHT22;11828;51.508;18.118;2022-07-29T14:24:06;42.40;19.30
23311;DHT22;11828;51.508;18.118;2022-07-29T14:26:32;42.30;19.40
23311;DHT22;11828;51.508;18.118;2022-07-29T14:28:58;42.30;19.50
23311;DHT22;11828;51.508;18.118;2022-07-29T14:31:24;42.40;19.50
23311;DHT22;11828;51.508;18.118;2022-07-29T14:33:50;42.40;19.40
23311;DHT22;11828;51.508;18.118;2022-07-29T14:36:16;42.50;19.40
23311;DHT22;11828;51.508;18.118;2022-07-29T14:38:42;42.50;19.30
23311;DHT22;11828;51.508;18.118;2022-07-29T14:41:09;42.40;19.30
23311;DHT22;11828;51.508;18.118;2022-07-29T14:43:35;42.40;19.50
23311;DHT22;11828;51.508;18.118;2022-07-29T14:46:01;42.30;19.40
23311;DHT22;11828;51.508;18.118;2022-07-29T14:48:27;42.20;19.50
23311;DHT22;11828;51.508;18.118;2022-07-29T14:50:54;42.10;19.60
23311;DHT22;11828;51.508;18.118;2022-07-29T14:53:22;41.90;19.60
23311;DHT22;11828;51.508;18.118;2022-07-29T14:55:48;41.90;19.80
23311;DHT22;11828;51.508;18.118;2022-07-29T14:58:15;41.80;19.80
23311;DHT22;11828;51.508;18.118;2022-07-29T15:00:41;41.70;19.70
23311;DHT22;11828;51.508;18.118;2022-07-29T15:03:07;41.60;19.60
23311;DHT22;11828;51.508;18.118;2022-07-29T15:05:35;41.50;19.70
23311;DHT22;11828;51.508;18.118;2022-07-29T15:08:02;41.60;19.90
23311;DHT22;11828;51.508;18.118;2022-07-29T15:10:29;41.50;20.40
23311;DHT22;11828;51.508;18.118;2022-07-29T15:12:56;41.80;20.00
23311;DHT22;11828;51.508;18.118;2022-07-29T15:15:22;42.10;20.00
23311;DHT22;11828;51.508;18.118;2022-07-29T15:17:48;42.60;19.90
23311;DHT22;11828;51.508;18.118;2022-07-29T15:20:14;43.10;19.40
23311;DHT22;11828;51.508;18.118;2022-07-29T15:25:08;43.30;18.70
23311;DHT22;11828;51.508;18.118;2022-07-29T15:27:35;43.20;19.20
23311;DHT22;11828;51.508;18.118;2022-07-29T15:30:01;43.10;19.10
23311;DHT22;11828;51.508;18.118;2022-07-29T15:32:27;42.90;19.10
23311;DHT22;11828;51.508;18.118;2022-07-29T15:34:54;43.10;19.20
23311;DHT22;11828;51.508;18.118;2022-07-29T15:37:20;43.40;19.20
23311;DHT22;11828;51.508;18.118;2022-07-29T15:42:12;44.10;18.10
23311;DHT22;11828;51.508;18.118;2022-07-29T15:44:38;44.40;18.40
23311;DHT22;11828;51.508;18.118;2022-07-29T15:47:04;44.70;18.30
23311;DHT22;11828;51.508;18.118;2022-07-29T15:49:36;44.60;18.10
23311;DHT22;11828;51.508;18.118;2022-07-29T15:52:09;44.40;18.20
23311;DHT22;11828;51.508;18.118;2022-07-29T15:54:38;43.80;18.80
23311;DHT22;11828;51.508;18.118;2022-07-29T15:57:06;43.50;18.40
23311;DHT22;11828;51.508;18.118;2022-07-29T15:59:33;43.20;18.60
23311;DHT22;11828;51.508;18.118;2022-07-29T16:02:01;43.00;18.80
23311;DHT22;11828;51.508;18.118;2022-07-29T16:04:27;42.80;18.90
23311;DHT22;11828;51.508;18.118;2022-07-29T16:06:53;42.60;19.00
23311;DHT22;11828;51.508;18.118;2022-07-29T16:09:19;42.40;19.20
23311;DHT22;11828;51.508;18.118;2022-07-29T16:11:46;42.30;19.40
23311;DHT22;11828;51.508;18.118;2022-07-29T16:14:16;42.10;19.50
23311;DHT22;11828;51.508;18.118;2022-07-29T16:16:43;41.90;19.60
23311;DHT22;11828;51.508;18.118;2022-07-29T16:19:09;41.80;19.70
23311;DHT22;11828;51.508;18.118;2022-07-29T16:21:36;41.70;19.80
23311;DHT22;11828;51.508;18.118;2022-07-29T16:24:04;41.60;19.80